sensor_id;sensor_type;location;lat;lon;timestamp;pressure;altitude;pressure_sealevel;temperature;humidity
65760;BME280;52496;51.082;5.066;2022-08-30T00:00:16;101883.28;;;17.55;72.91
65760;BME280;52496;51.082;5.066;2022-08-30T00:03:08;101880.78;;;17.53;73.23
65760;BME280;52496;51.082;5.066;2022-08-30T00:05:40;101879.09;;;17.52;72.86
65760;BME280;52496;51.082;5.066;2022-08-30T00:08:11;101878.28;;;17.52;73.20
65760;BME280;52496;51.082;5.066;2022-08-30T00:10:42;101882.03;;;17.51;73.12
65760;BME280;52496;51.082;5.066;2022-08-30T00:13:13;101882.44;;;17.48;73.22
65760;BME280;52496;51.082;5.066;2022-08-30T00:15:45;101880.16;;;17.45;73.32
65760;BME280;52496;51.082;5.066;2022-08-30T00:18:17;101884.28;;;17.40;73.58
65760;BME280;52496;51.082;5.066;2022-08-30T00:20:49;101877.63;;;17.36;73.73
65760;BME280;52496;51.082;5.066;2022-08-30T00:23:20;101875.31;;;17.33;74.03
65760;BME280;52496;51.082;5.066;2022-08-30T00:25:50;101876.56;;;17.31;74.11
65760;BME280;52496;51.082;5.066;2022-08-30T00:28:21;101873.44;;;17.27;74.32
65760;BME280;52496;51.082;5.066;2022-08-30T00:30:52;101870.31;;;17.24;74.44
65760;BME280;52496;51.082;5.066;2022-08-30T00:33:23;101878.63;;;17.22;74.58
65760;BME280;52496;51.082;5.066;2022-08-30T00:35:53;101875.09;;;17.22;74.91
65760;BME280;52496;51.082;5.066;2022-08-30T00:38:24;101877.78;;;17.22;74.85
65760;BME280;52496;51.082;5.066;2022-08-30T00:40:54;101879.25;;;17.24;75.06
65760;BME280;52496;51.082;5.066;2022-08-30T00:43:28;101880.72;;;17.27;74.77
65760;BME280;52496;51.082;5.066;2022-08-30T00:45:59;101876.78;;;17.29;75.04
65760;BME280;52496;51.082;5.066;2022-08-30T00:48:36;101889.06;;;17.32;74.89
65760;BME280;52496;51.082;5.066;2022-08-30T00:51:10;101888.66;;;17.35;75.22
65760;BME280;52496;51.082;5.066;2022-08-30T00:53:46;101890.09;;;17.37;74.96
65760;BME280;52496;51.082;5.066;2022-08-30T00:56:17;101883.44;;;17.40;74.82
65760;BME280;52496;51.082;5.066;2022-08-30T00:58:51;101890.31;;;17.42;74.85
65760;BME280;52496;51.082;5.066;2022-08-30T01:01:24;101892.63;;;17.46;74.73
65760;BME280;52496;51.082;5.066;2022-08-30T01:03:55;101899.28;;;17.50;74.64
65760;BME280;52496;51.082;5.066;2022-08-30T01:06:25;101889.94;;;17.52;74.54
65760;BME280;52496;51.082;5.066;2022-08-30T01:08:56;101903.88;;;17.56;74.64
65760;BME280;52496;51.082;5.066;2022-08-30T01:11:27;101896.38;;;17.58;74.36
65760;BME280;52496;51.082;5.066;2022-08-30T01:13:59;101898.69;;;17.61;74.29
65760;BME280;52496;51.082;5.066;2022-08-30T01:16:31;101893.28;;;17.61;74.27
65760;BME280;52496;51.082;5.066;2022-08-30T01:19:04;101898.69;;;17.61;74.24
65760;BME280;52496;51.082;5.066;2022-08-30T01:21:47;101889.09;;;17.58;74.47
65760;BME280;52496;51.082;5.066;2022-08-30T01:24:19;101895.56;;;17.57;74.67
65760;BME280;52496;51.082;5.066;2022-08-30T01:26:50;101887.03;;;17.54;74.86
65760;BME280;52496;51.082;5.066;2022-08-30T01:29:22;101888.69;;;17.55;74.98
65760;BME280;52496;51.082;5.066;2022-08-30T01:31:52;101890.75;;;17.53;74.94
65760;BME280;52496;51.082;5.066;2022-08-30T01:34:23;101885.34;;;17.53;75.07
65760;BME280;52496;51.082;5.066;2022-08-30T01:36:54;101892.44;;;17.54;75.27
65760;BME280;52496;51.082;5.066;2022-08-30T01:39:25;101888.91;;;17.53;75.17
65760;BME280;52496;51.082;5.066;2022-08-30T01:41:55;101890.75;;;17.53;75.47
65760;BME280;52496;51.082;5.066;2022-08-30T01:44:26;101890.75;;;17.53;75.34
65760;BME280;52496;51.082;5.066;2022-08-30T01:46:56;101884.50;;;17.52;75.43
65760;BME280;52496;51.082;5.066;2022-08-30T01:49:27;101886.38;;;17.52;75.40
65760;BME280;52496;51.082;5.066;2022-08-30T01:51:57;101885.34;;;17.53;75.78
65760;BME280;52496;51.082;5.066;2022-08-30T01:54:32;101876.81;;;17.49;75.73
65760;BME280;52496;51.082;5.066;2022-08-30T01:57:05;101876.41;;;17.46;75.95
65760;BME280;52496;51.082;5.066;2022-08-30T01:59:37;101880.34;;;17.43;76.25
65760;BME280;52496;51.082;5.066;2022-08-30T02:02:09;101878.44;;;17.37;75.93
65760;BME280;52496;51.082;5.066;2022-08-30T02:04:40;101882.38;;;17.34;76.30
65760;BME280;52496;51.082;5.066;2022-08-30T02:07:11;101883.84;;;17.30;76.40
65760;BME280;52496;51.082;5.066;2022-08-30T02:09:41;101887.59;;;17.23;76.55
65760;BME280;52496;51.082;5.066;2022-08-30T02:12:12;101882.59;;;17.19;76.73
65760;BME280;52496;51.082;5.066;2022-08-30T02:14:44;101886.91;;;17.14;76.98
65760;BME280;52496;51.082;5.066;2022-08-30T02:17:15;101890.44;;;17.08;77.35
65760;BME280;52496;51.082;5.066;2022-08-30T02:19:45;101878.97;;;17.06;77.63
65760;BME280;52496;51.082;5.066;2022-08-30T02:22:16;101877.31;;;17.05;78.32
65760;BME280;52496;51.082;5.066;2022-08-30T02:24:46;101874.63;;;17.05;77.92
65760;BME280;52496;51.082;5.066;2022-08-30T02:27:17;101875.03;;;17.08;78.16
65760;BME280;52496;51.082;5.066;2022-08-30T02:29:47;101877.13;;;17.13;78.09
65760;BME280;52496;51.082;5.066;2022-08-30T02:32:18;101862.59;;;17.14;77.84
65760;BME280;52496;51.082;5.066;2022-08-30T02:34:48;101864.06;;;17.16;77.90
65760;BME280;52496;51.082;5.066;2022-08-30T02:37:19;101868.63;;;17.16;77.95
65760;BME280;52496;51.082;5.066;2022-08-30T02:39:50;101865.72;;;17.17;77.96
65760;BME280;52496;51.082;5.066;2022-08-30T02:42:20;101862.19;;;17.17;78.08
65760;BME280;52496;51.082;5.066;2022-08-30T02:44:50;101864.06;;;17.16;78.10
65760;BME280;52496;51.082;5.066;2022-08-30T02:47:21;101859.91;;;17.14;78.26
65760;BME280;52496;51.082;5.066;2022-08-30T02:49:51;101851.38;;;17.10;78.22
65760;BME280;52496;51.082;5.066;2022-08-30T02:52:21;101856.13;;;17.08;78.38
65760;BME280;52496;51.082;5.066;2022-08-30T02:54:52;101850.31;;;17.05;78.27
65760;BME280;52496;51.082;5.066;2022-08-30T02:57:24;101850.06;;;17.00;78.52
65760;BME280;52496;51.082;5.066;2022-08-30T02:59:55;101853.34;;;16.95;78.47
65760;BME280;52496;51.082;5.066;2022-08-30T03:02:25;101851.91;;;16.92;78.82
65760;BME280;52496;51.082;5.066;2022-08-30T03:04:56;101847.31;;;16.86;78.90
65760;BME280;52496;51.082;5.066;2022-08-30T03:07:26;101845.22;;;16.82;78.97
65760;BME280;52496;51.082;5.066;2022-08-30T03:09:57;101848.13;;;16.80;79.01
65760;BME280;52496;51.082;5.066;2022-08-30T03:12:27;101847.66;;;16.77;79.39
65760;BME280;52496;51.082;5.066;2022-08-30T03:14:58;101848.91;;;16.74;79.35
65760;BME280;52496;51.082;5.066;2022-08-30T03:17:28;101850.97;;;16.72;79.70
65760;BME280;52496;51.082;5.066;2022-08-30T03:20:00;101842.22;;;16.70;79.73
65760;BME280;52496;51.082;5.066;2022-08-30T03:22:31;101837.84;;;16.69;79.73
65760;BME280;52496;51.082;5.066;2022-08-30T03:25:03;101838.91;;;16.68;79.61
65760;BME280;52496;51.082;5.066;2022-08-30T03:27:34;101839.91;;;16.67;79.88
65760;BME280;52496;51.082;5.066;2022-08-30T03:30:05;101841.78;;;16.66;80.10
65760;BME280;52496;51.082;5.066;2022-08-30T03:32:35;101843.66;;;16.66;80.10
65760;BME280;52496;51.082;5.066;2022-08-30T03:35:07;101846.34;;;16.66;80.13
65760;BME280;52496;51.082;5.066;2022-08-30T03:37:39;101844.31;;;16.68;80.23
65760;BME280;52496;51.082;5.066;2022-08-30T03:40:11;101845.97;;;16.69;80.17
65760;BME280;52496;51.082;5.066;2022-08-30T03:42:43;101840.16;;;16.72;80.07
65760;BME280;52496;51.082;5.066;2022-08-30T03:45:16;101843.50;;;16.74;79.99
65760;BME280;52496;51.082;5.066;2022-08-30T03:47:46;101838.34;;;16.79;79.99
65760;BME280;52496;51.082;5.066;2022-08-30T03:50:17;101839.81;;;16.82;79.80
65760;BME280;52496;51.082;5.066;2022-08-30T03:52:47;101852.09;;;16.84;79.68
65760;BME280;52496;51.082;5.066;2022-08-30T03:55:18;101846.28;;;16.87;79.65
65760;BME280;52496;51.082;5.066;2022-08-30T03:57:48;101845.22;;;16.88;79.67
65760;BME280;52496;51.082;5.066;2022-08-30T04:00:19;101844.22;;;16.89;79.50
65760;BME280;52496;51.082;5.066;2022-08-30T04:02:49;101847.53;;;16.91;79.53
65760;BME280;52496;51.082;5.066;2022-08-30T04:05:20;101848.56;;;16.90;79.45
65760;BME280;52496;51.082;5.066;2022-08-30T04:07:50;101848.56;;;16.90;79.41
65760;BME280;52496;51.082;5.066;2022-08-30T04:10:21;101838.59;;;16.91;79.46
65760;BME280;52496;51.082;5.066;2022-08-30T04:12:52;101855.63;;;16.91;79.35
65760;BME280;52496;51.082;5.066;2022-08-30T04:15:23;101852.94;;;16.91;79.38
65760;BME280;52496;51.082;5.066;2022-08-30T04:17:53;101853.97;;;16.90;79.34
65760;BME280;52496;51.082;5.066;2022-08-30T04:20:24;101850.22;;;16.91;79.32
65760;BME280;52496;51.082;5.066;2022-08-30T04:22:54;101852.31;;;16.89;79.49
65760;BME280;52496;51.082;5.066;2022-08-30T04:25:24;101860.63;;;16.88;79.68
65760;BME280;52496;51.082;5.066;2022-08-30T04:27:55;101857.72;;;16.89;79.52
65760;BME280;52496;51.082;5.066;2022-08-30T04:30:25;101857.91;;;16.88;79.55
65760;BME280;52496;51.082;5.066;2022-08-30T04:32:56;101861.44;;;16.88;79.66
65760;BME280;52496;51.082;5.066;2022-08-30T04:35:27;101850.22;;;16.85;79.80
65760;BME280;52496;51.082;5.066;2022-08-30T04:37:57;101867.25;;;16.85;79.60
65760;BME280;52496;51.082;5.066;2022-08-30T04:40:28;101859.53;;;16.82;80.07
65760;BME280;52496;51.082;5.066;2022-08-30T04:42:58;101864.75;;;16.84;79.79
65760;BME280;52496;51.082;5.066;2022-08-30T04:45:29;101863.94;;;16.83;79.92
65760;BME280;52496;51.082;5.066;2022-08-30T04:47:59;101865.59;;;16.84;80.05
65760;BME280;52496;51.082;5.066;2022-08-30T04:50:30;101868.94;;;16.86;80.13
65760;BME280;52496;51.082;5.066;2022-08-30T04:53:01;101868.94;;;16.86;80.08
65760;BME280;52496;51.082;5.066;2022-08-30T04:55:31;101870.59;;;16.87;80.10
65760;BME280;52496;51.082;5.066;2022-08-30T04:58:02;101863.53;;;16.86;80.08
65760;BME280;52496;51.082;5.066;2022-08-30T05:00:35;101866.03;;;16.88;80.07
65760;BME280;52496;51.082;5.066;2022-08-30T05:03:06;101876.25;;;16.92;79.96
65760;BME280;52496;51.082;5.066;2022-08-30T05:05:37;101874.97;;;16.95;79.77
65760;BME280;52496;51.082;5.066;2022-08-30T05:08:13;101879.16;;;16.97;79.81
65760;BME280;52496;51.082;5.066;2022-08-30T05:10:46;101878.34;;;17.04;79.72
65760;BME280;52496;51.082;5.066;2022-08-30T05:13:18;101879.81;;;17.06;79.51
65760;BME280;52496;51.082;5.066;2022-08-30T05:15:50;101882.94;;;17.10;79.38
65760;BME280;52496;51.082;5.066;2022-08-30T05:18:20;101882.75;;;17.11;79.21
65760;BME280;52496;51.082;5.066;2022-08-30T05:21:02;101888.56;;;17.15;79.18
65760;BME280;52496;51.082;5.066;2022-08-30T05:23:34;101884.84;;;17.16;79.03
65760;BME280;52496;51.082;5.066;2022-08-30T05:26:10;101877.75;;;17.15;78.85
65760;BME280;52496;51.082;5.066;2022-08-30T05:28:42;101887.34;;;17.17;79.03
65760;BME280;52496;51.082;5.066;2022-08-30T05:31:17;101891.31;;;17.22;78.97
65760;BME280;52496;51.082;5.066;2022-08-30T05:33:49;101894.84;;;17.22;78.83
65760;BME280;52496;51.082;5.066;2022-08-30T05:36:23;101894.44;;;17.25;78.85
65760;BME280;52496;51.082;5.066;2022-08-30T05:38:54;101893.19;;;17.28;78.64
65760;BME280;52496;51.082;5.066;2022-08-30T05:41:26;101899.03;;;17.31;78.69
65760;BME280;52496;51.082;5.066;2022-08-30T05:43:59;101889.50;;;17.35;78.37
65760;BME280;52496;51.082;5.066;2022-08-30T05:46:30;101892.78;;;17.37;78.35
65760;BME280;52496;51.082;5.066;2022-08-30T05:49:06;101896.13;;;17.39;78.37
65760;BME280;52496;51.082;5.066;2022-08-30T05:51:36;101893.66;;;17.45;78.21
65760;BME280;52496;51.082;5.066;2022-08-30T05:54:08;101894.91;;;17.49;78.24
65760;BME280;52496;51.082;5.066;2022-08-30T05:56:39;101897.03;;;17.53;78.00
65760;BME280;52496;51.082;5.066;2022-08-30T10:01:15;101896.72;;;26.88;45.16
65760;BME280;52496;51.082;5.066;2022-08-30T10:04:18;101891.22;;;26.83;44.98
65760;BME280;52496;51.082;5.066;2022-08-30T10:12:15;101890.13;;;26.84;45.67
65760;BME280;52496;51.082;5.066;2022-08-30T10:20:20;101891.25;;;26.93;45.03
65760;BME280;52496;51.082;5.066;2022-08-30T10:23:05;101890.22;;;27.10;44.83
65760;BME280;52496;51.082;5.066;2022-08-30T10:25:41;101887.25;;;27.21;43.98
65760;BME280;52496;51.082;5.066;2022-08-30T10:31:23;101883.16;;;27.39;43.73
65760;BME280;52496;51.082;5.066;2022-08-30T10:33:59;101880.97;;;27.41;43.73
65760;BME280;52496;51.082;5.066;2022-08-30T10:36:36;101876.56;;;27.51;43.67
65760;BME280;52496;51.082;5.066;2022-08-30T10:39:15;101879.06;;;27.57;42.40
65760;BME280;52496;51.082;5.066;2022-08-30T10:41:59;101879.88;;;27.58;42.89
65760;BME280;52496;51.082;5.066;2022-08-30T10:44:34;101872.72;;;27.57;43.16
65760;BME280;52496;51.082;5.066;2022-08-30T10:50:16;101869.16;;;27.56;42.35
65760;BME280;52496;51.082;5.066;2022-08-30T10:52:55;101872.19;;;27.50;43.03
65760;BME280;52496;51.082;5.066;2022-08-30T10:55:35;101876.03;;;27.49;42.68
65760;BME280;52496;51.082;5.066;2022-08-30T10:58:06;101868.63;;;27.54;42.87
65760;BME280;52496;51.082;5.066;2022-08-30T11:00:53;101876.56;;;27.66;42.33
65760;BME280;52496;51.082;5.066;2022-08-30T11:06:17;101860.09;;;27.66;42.60
65760;BME280;52496;51.082;5.066;2022-08-30T11:09:31;101856.81;;;27.84;42.13
65760;BME280;52496;51.082;5.066;2022-08-30T11:12:35;101852.13;;;27.95;42.15
65760;BME280;52496;51.082;5.066;2022-08-30T11:15:17;101855.16;;;28.04;41.33
65760;BME280;52496;51.082;5.066;2022-08-30T11:18:04;101855.13;;;28.14;40.24
65760;BME280;52496;51.082;5.066;2022-08-30T11:20:44;101857.31;;;28.12;41.36
65760;BME280;52496;51.082;5.066;2022-08-30T11:23:34;101854.00;;;28.30;41.15
65760;BME280;52496;51.082;5.066;2022-08-30T11:26:08;101846.19;;;28.63;40.80
65760;BME280;52496;51.082;5.066;2022-08-30T11:31:32;101848.06;;;29.27;39.43
65760;BME280;52496;51.082;5.066;2022-08-30T11:34:04;101838.44;;;29.25;38.58
65760;BME280;52496;51.082;5.066;2022-08-30T11:39:41;101843.66;;;29.26;38.21
65760;BME280;52496;51.082;5.066;2022-08-30T11:42:30;101847.22;;;29.32;38.47
65760;BME280;52496;51.082;5.066;2022-08-30T11:46:04;101842.91;;;29.55;38.56
65760;BME280;52496;51.082;5.066;2022-08-30T11:48:46;101842.13;;;29.84;37.84
65760;BME280;52496;51.082;5.066;2022-08-30T12:00:35;101832.25;;;29.43;37.95
65760;BME280;52496;51.082;5.066;2022-08-30T12:06:01;101838.09;;;30.00;36.91
65760;BME280;52496;51.082;5.066;2022-08-30T12:16:36;101842.59;;;29.91;37.59
65760;BME280;52496;51.082;5.066;2022-08-30T12:19:29;101838.44;;;30.23;37.24
65760;BME280;52496;51.082;5.066;2022-08-30T12:22:03;101844.63;;;30.57;35.90
65760;BME280;52496;51.082;5.066;2022-08-30T12:24:43;101837.41;;;30.61;35.34
65760;BME280;52496;51.082;5.066;2022-08-30T12:27:31;101839.44;;;30.75;36.02
65760;BME280;52496;51.082;5.066;2022-08-30T12:30:06;101831.97;;;30.56;35.79
65760;BME280;52496;51.082;5.066;2022-08-30T12:32:46;101832.25;;;30.31;35.41
65760;BME280;52496;51.082;5.066;2022-08-30T12:35:20;101838.09;;;30.29;36.05
65760;BME280;52496;51.082;5.066;2022-08-30T12:38:19;101832.34;;;30.26;36.12
65760;BME280;52496;51.082;5.066;2022-08-30T12:40:57;101829.19;;;30.08;35.86
65760;BME280;52496;51.082;5.066;2022-08-30T12:43:29;101833.66;;;29.75;36.47
65760;BME280;52496;51.082;5.066;2022-08-30T12:46:03;101833.97;;;29.34;36.93
65760;BME280;52496;51.082;5.066;2022-08-30T12:48:36;101838.50;;;29.15;37.68
65760;BME280;52496;51.082;5.066;2022-08-30T12:51:25;101843.75;;;29.16;37.61
65760;BME280;52496;51.082;5.066;2022-08-30T12:54:16;101825.75;;;29.63;37.10
65760;BME280;52496;51.082;5.066;2022-08-30T12:57:00;101833.97;;;30.27;36.07
65760;BME280;52496;51.082;5.066;2022-08-30T13:02:22;101832.00;;;31.32;33.66
65760;BME280;52496;51.082;5.066;2022-08-30T13:04:54;101836.56;;;31.42;33.73
65760;BME280;52496;51.082;5.066;2022-08-30T13:07:31;101823.38;;;31.52;33.44
65760;BME280;52496;51.082;5.066;2022-08-30T13:10:12;101824.59;;;31.79;33.07
65760;BME280;52496;51.082;5.066;2022-08-30T13:12:57;101818.25;;;31.79;32.45
65760;BME280;52496;51.082;5.066;2022-08-30T13:15:34;101818.13;;;31.70;32.53
65760;BME280;52496;51.082;5.066;2022-08-30T13:18:26;101810.66;;;31.84;32.39
65760;BME280;52496;51.082;5.066;2022-08-30T13:21:28;101810.56;;;31.43;32.69
65760;BME280;52496;51.082;5.066;2022-08-30T13:24:04;101809.81;;;31.37;32.40
65760;BME280;52496;51.082;5.066;2022-08-30T13:26:36;101814.50;;;31.56;31.80
65760;BME280;52496;51.082;5.066;2022-08-30T13:29:14;101802.25;;;31.75;31.60
65760;BME280;52496;51.082;5.066;2022-08-30T13:31:45;101790.84;;;32.10;31.35
65760;BME280;52496;51.082;5.066;2022-08-30T13:34:16;101803.03;;;32.36;31.01
65760;BME280;52496;51.082;5.066;2022-08-30T13:36:53;101793.59;;;32.37;31.02
65760;BME280;52496;51.082;5.066;2022-08-30T13:39:24;101785.78;;;32.39;31.52
65760;BME280;52496;51.082;5.066;2022-08-30T13:41:55;101791.59;;;32.65;31.32
65760;BME280;52496;51.082;5.066;2022-08-30T13:44:25;101789.75;;;32.75;30.61
65760;BME280;52496;51.082;5.066;2022-08-30T13:46:56;101792.84;;;32.73;30.48
65760;BME280;52496;51.082;5.066;2022-08-30T13:49:30;101785.94;;;32.84;30.17
65760;BME280;52496;51.082;5.066;2022-08-30T13:52:03;101777.28;;;32.63;30.26
65760;BME280;52496;51.082;5.066;2022-08-30T13:54:33;101782.34;;;32.48;30.16
65760;BME280;52496;51.082;5.066;2022-08-30T13:57:04;101790.72;;;32.42;30.46
65760;BME280;52496;51.082;5.066;2022-08-30T13:59:35;101787.25;;;32.23;30.61
65760;BME280;52496;51.082;5.066;2022-08-30T14:02:05;101780.19;;;32.17;31.16
65760;BME280;52496;51.082;5.066;2022-08-30T14:04:36;101776.91;;;32.15;31.11
65760;BME280;52496;51.082;5.066;2022-08-30T14:07:07;101783.66;;;31.95;31.04
65760;BME280;52496;51.082;5.066;2022-08-30T14:09:37;101768.81;;;31.58;31.70
65760;BME280;52496;51.082;5.066;2022-08-30T14:12:08;101773.59;;;31.71;31.61
65760;BME280;52496;51.082;5.066;2022-08-30T14:14:38;101770.28;;;31.83;31.76
65760;BME280;52496;51.082;5.066;2022-08-30T14:17:09;101769.63;;;31.91;31.58
65760;BME280;52496;51.082;5.066;2022-08-30T14:19:39;101773.91;;;31.97;30.81
65760;BME280;52496;51.082;5.066;2022-08-30T14:22:10;101774.41;;;31.86;30.45
65760;BME280;52496;51.082;5.066;2022-08-30T14:24:40;101771.03;;;31.75;30.95
65760;BME280;52496;51.082;5.066;2022-08-30T14:27:11;101767.94;;;31.63;31.52
65760;BME280;52496;51.082;5.066;2022-08-30T14:29:41;101771.28;;;31.27;31.52
65760;BME280;52496;51.082;5.066;2022-08-30T14:32:11;101768.59;;;30.89;31.98
65760;BME280;52496;51.082;5.066;2022-08-30T14:34:42;101768.97;;;30.39;32.17
65760;BME280;52496;51.082;5.066;2022-08-30T14:37:12;101772.28;;;29.88;33.52
65760;BME280;52496;51.082;5.066;2022-08-30T14:39:43;101766.19;;;29.67;34.13
65760;BME280;52496;51.082;5.066;2022-08-30T14:42:13;101775.34;;;29.58;34.52
65760;BME280;52496;51.082;5.066;2022-08-30T14:44:44;101765.91;;;29.35;34.91
65760;BME280;52496;51.082;5.066;2022-08-30T14:47:14;101768.50;;;29.21;35.30
65760;BME280;52496;51.082;5.066;2022-08-30T14:49:45;101767.81;;;29.05;35.54
65760;BME280;52496;51.082;5.066;2022-08-30T14:52:16;101771.19;;;28.92;35.53
65760;BME280;52496;51.082;5.066;2022-08-30T14:54:46;101761.44;;;28.65;35.46
65760;BME280;52496;51.082;5.066;2022-08-30T14:57:17;101753.75;;;28.57;35.68
65760;BME280;52496;51.082;5.066;2022-08-30T14:59:47;101763.34;;;28.65;35.78
65760;BME280;52496;51.082;5.066;2022-08-30T15:02:18;101755.16;;;28.99;35.36
65760;BME280;52496;51.082;5.066;2022-08-30T15:04:48;101746.13;;;29.27;35.03
65760;BME280;52496;51.082;5.066;2022-08-30T15:07:19;101754.63;;;29.65;34.59
65760;BME280;52496;51.082;5.066;2022-08-30T15:09:49;101756.34;;;29.85;34.31
65760;BME280;52496;51.082;5.066;2022-08-30T15:12:20;101756.13;;;30.06;33.88
65760;BME280;52496;51.082;5.066;2022-08-30T15:14:51;101750.00;;;30.33;33.92
65760;BME280;52496;51.082;5.066;2022-08-30T15:17:22;101748.47;;;30.46;33.31
65760;BME280;52496;51.082;5.066;2022-08-30T15:19:52;101753.22;;;30.40;33.10
65760;BME280;52496;51.082;5.066;2022-08-30T15:22:23;101753.38;;;30.30;33.45
65760;BME280;52496;51.082;5.066;2022-08-30T15:24:53;101749.41;;;30.12;33.37
65760;BME280;52496;51.082;5.066;2022-08-30T15:27:24;101740.50;;;29.96;33.58
65760;BME280;52496;51.082;5.066;2022-08-30T15:29:55;101745.56;;;30.13;33.91
65760;BME280;52496;51.082;5.066;2022-08-30T15:32:25;101744.88;;;30.26;33.56
65760;BME280;52496;51.082;5.066;2022-08-30T15:34:56;101745.69;;;30.27;33.83
65760;BME280;52496;51.082;5.066;2022-08-30T15:37:26;101740.75;;;30.24;34.24
65760;BME280;52496;51.082;5.066;2022-08-30T15:39:57;101744.72;;;30.12;33.67
65760;BME280;52496;51.082;5.066;2022-08-30T15:42:27;101739.69;;;29.95;33.34
65760;BME280;52496;51.082;5.066;2022-08-30T15:44:58;101731.00;;;29.83;33.85
65760;BME280;52496;51.082;5.066;2022-08-30T15:47:29;101724.69;;;29.83;33.82
65760;BME280;52496;51.082;5.066;2022-08-30T15:50:01;101722.56;;;29.75;33.62
65760;BME280;52496;51.082;5.066;2022-08-30T15:52:32;101726.25;;;29.60;33.71
65760;BME280;52496;51.082;5.066;2022-08-30T15:55:03;101722.31;;;29.42;33.97
65760;BME280;52496;51.082;5.066;2022-08-30T15:57:34;101731.03;;;29.25;34.63
65760;BME280;52496;51.082;5.066;2022-08-30T16:00:05;101722.38;;;29.02;34.76
65760;BME280;52496;51.082;5.066;2022-08-30T16:02:38;101725.75;;;28.89;34.95
65760;BME280;52496;51.082;5.066;2022-08-30T16:05:09;101728.28;;;28.80;35.71
65760;BME280;52496;51.082;5.066;2022-08-30T16:07:39;101728.31;;;28.75;35.57
65760;BME280;52496;51.082;5.066;2022-08-30T16:10:10;101714.91;;;28.64;35.41
65760;BME280;52496;51.082;5.066;2022-08-30T16:12:40;101716.38;;;28.51;35.66
65760;BME280;52496;51.082;5.066;2022-08-30T16:15:11;101713.09;;;28.39;35.38
65760;BME280;52496;51.082;5.066;2022-08-30T16:17:42;101710.94;;;28.35;35.68
65760;BME280;52496;51.082;5.066;2022-08-30T16:20:12;101713.13;;;28.44;36.26
65760;BME280;52496;51.082;5.066;2022-08-30T16:22:43;101721.88;;;28.51;35.52
65760;BME280;52496;51.082;5.066;2022-08-30T16:25:14;101710.28;;;28.54;35.42
65760;BME280;52496;51.082;5.066;2022-08-30T16:27:44;101715.81;;;28.54;35.23
65760;BME280;52496;51.082;5.066;2022-08-30T16:30:15;101714.25;;;28.43;35.58
65760;BME280;52496;51.082;5.066;2022-08-30T16:32:45;101715.59;;;28.40;35.83
65760;BME280;52496;51.082;5.066;2022-08-30T16:35:18;101706.28;;;28.31;35.68
65760;BME280;52496;51.082;5.066;2022-08-30T16:37:48;101723.09;;;28.24;36.25
65760;BME280;52496;51.082;5.066;2022-08-30T16:40:19;101717.31;;;28.21;36.13
65760;BME280;52496;51.082;5.066;2022-08-30T16:42:50;101705.00;;;28.13;36.38
65760;BME280;52496;51.082;5.066;2022-08-30T16:45:20;101713.88;;;27.95;35.91
65760;BME280;52496;51.082;5.066;2022-08-30T16:47:50;101716.09;;;27.72;36.02
65760;BME280;52496;51.082;5.066;2022-08-30T16:50:21;101714.78;;;27.54;36.39
65760;BME280;52496;51.082;5.066;2022-08-30T16:52:52;101716.69;;;27.38;36.46
65760;BME280;52496;51.082;5.066;2022-08-30T16:55:22;101719.47;;;27.28;36.61
65760;BME280;52496;51.082;5.066;2022-08-30T16:57:53;101718.91;;;27.16;36.89
65760;BME280;52496;51.082;5.066;2022-08-30T17:00:23;101715.31;;;27.05;36.74
65760;BME280;52496;51.082;5.066;2022-08-30T17:02:54;101716.13;;;26.95;37.08
65760;BME280;52496;51.082;5.066;2022-08-30T17:05:25;101720.53;;;26.91;36.85
65760;BME280;52496;51.082;5.066;2022-08-30T17:07:55;101711.72;;;26.79;36.67
65760;BME280;52496;51.082;5.066;2022-08-30T17:10:27;101721.56;;;26.65;37.08
65760;BME280;52496;51.082;5.066;2022-08-30T17:12:57;101727.03;;;26.49;37.09
65760;BME280;52496;51.082;5.066;2022-08-30T17:15:28;101728.03;;;26.38;37.34
65760;BME280;52496;51.082;5.066;2022-08-30T17:17:58;101732.94;;;26.26;37.78
65760;BME280;52496;51.082;5.066;2022-08-30T17:20:29;101729.06;;;26.17;37.76
65760;BME280;52496;51.082;5.066;2022-08-30T17:23:00;101731.78;;;26.06;38.02
65760;BME280;52496;51.082;5.066;2022-08-30T17:25:31;101736.94;;;25.98;38.23
65760;BME280;52496;51.082;5.066;2022-08-30T17:28:02;101735.53;;;25.90;38.23
65760;BME280;52496;51.082;5.066;2022-08-30T17:30:32;101739.25;;;25.79;38.64
65760;BME280;52496;51.082;5.066;2022-08-30T17:33:03;101745.28;;;25.76;38.52
65760;BME280;52496;51.082;5.066;2022-08-30T17:35:33;101748.50;;;25.68;38.58
65760;BME280;52496;51.082;5.066;2022-08-30T17:38:04;101754.50;;;25.59;38.73
65760;BME280;52496;51.082;5.066;2022-08-30T17:40:34;101751.13;;;25.52;38.81
65760;BME280;52496;51.082;5.066;2022-08-30T17:43:05;101750.84;;;25.49;39.70
65760;BME280;52496;51.082;5.066;2022-08-30T17:45:37;101763.66;;;25.43;39.63
65760;BME280;52496;51.082;5.066;2022-08-30T17:48:07;101760.84;;;25.33;39.15
65760;BME280;52496;51.082;5.066;2022-08-30T17:50:38;101762.72;;;25.27;39.84
65760;BME280;52496;51.082;5.066;2022-08-30T17:53:08;101768.66;;;25.19;39.82
65760;BME280;52496;51.082;5.066;2022-08-30T17:55:38;101767.72;;;25.08;40.04
65760;BME280;52496;51.082;5.066;2022-08-30T17:58:09;101776.41;;;25.00;40.34
65760;BME280;52496;51.082;5.066;2022-08-30T18:00:39;101785.91;;;24.92;40.17
65760;BME280;52496;51.082;5.066;2022-08-30T18:03:10;101783.88;;;24.83;40.76
65760;BME280;52496;51.082;5.066;2022-08-30T18:05:40;101784.59;;;24.73;40.66
65760;BME280;52496;51.082;5.066;2022-08-30T18:08:12;101789.69;;;24.64;40.65
65760;BME280;52496;51.082;5.066;2022-08-30T18:10:43;101789.81;;;24.53;41.08